Luga, Russia
Current Conditions -  °F | °C
As of 4:30 PM on Thursday 18 Dec 2014 (Local Time) from ULLI Reporting Station
Broken Clouds Broken Clouds  
Wind Chill: 25°   Ceiling: 1400
Heat Index: 34°   Visibility: 6mi
Dew Point: 30°   Wind: 11mph
Humidity: 87%   Direction: 240°WSW
Pressure: 29.53"   Gusts: NA
Location:  58.74°N, 29.84°E
Report Text: ULLI 181330Z 24005MPS 9999 BKN014 BKN066 01/M01 Q1000 88290050NOSIG
Loading
Personal Weather Stations






























Interactive Weather Map New forecast layout! Learn more

10-Day Weather Forecast

Advertisements
Track Severe Weather on mobile